Main page
METAR-TAF:

METAR-TAF

Airports :

Hohenfels, Germany

latitude: 49-13N, longitude: 011-50E, elevation: 442 m

Current weather observation

The report was made 21 minutes ago, at 13:55 UTC
Wind 10 kt from the West/Northwest with gusts up to 15 kt
Temperature 22°C
Humidity 43%
Pressure 1020 hPa
Visibility 10 km or more
Few clouds at a height of 5500 ft

METAR: ETIH 141355Z AUTO 29010G15KT 9999 FEW055 22/09 A3011 RMK AO2 SLP197 T02220087 $

Time: 16:16 (14:16 UTC)


TAF: missing

Weather observations and forecasts of more than 4000 airports (METAR and TAF reports).

The available stations are represented by yellow and red dots on the map.

Hover mouse over dot to see the name of the station.

Then click to see weather observations and forecasts.

To change the map : click on the green buttons with a black cross to zoom in, on the green button with a dash to zoom out, or on the green arrows for adjacent maps.


METAR-TAF: